Time;durP1;ratioP1;P1;durP2;ratioP2;P2;SDS_P1;SDS_P2;PMS_P1;PMS_P2;Temp;Humidity;BMP_temperature;BMP_pressure;BME280_temperature;BME280_humidity;BME280_pressure;Samples;Min_cycle;Max_cycle;Signal;HPM_P1;HPM_P2
2022/11/21 00:00:39;;;;;;;4.50;1.50;;;6.20;1.00;;;;;;5025816;28;21059;-66
2022/11/21 00:03:04;;;;;;;2.70;1.33;;;6.20;1.00;;;;;;5026726;28;20465;-66
2022/11/21 00:05:31;;;;;;;1.60;1.27;;;6.20;1.00;;;;;;5026742;28;20406;-65
2022/11/21 00:07:57;;;;;;;3.40;1.40;;;6.30;1.00;;;;;;5026103;28;20667;-66
2022/11/21 00:10:24;;;;;;;3.20;1.00;;;6.30;1.00;;;;;;5026027;28;20410;-66
2022/11/21 00:12:54;;;;;;;1.40;1.17;;;6.30;1.00;;;;;;5026914;28;20402;-66
2022/11/21 00:15:21;;;;;;;1.73;1.00;;;6.30;1.00;;;;;;5027207;28;20417;-65
2022/11/21 00:17:47;;;;;;;1.13;0.90;;;6.20;1.00;;;;;;5026434;28;20438;-67
2022/11/21 00:20:12;;;;;;;2.43;1.17;;;6.20;1.70;;;;;;5027256;28;20445;-66
2022/11/21 00:22:38;;;;;;;5.27;1.10;;;6.30;1.00;;;;;;5028781;28;20191;-65
2022/11/21 00:25:04;;;;;;;1.30;0.90;;;6.30;1.00;;;;;;5029171;28;20168;-67
2022/11/21 00:27:30;;;;;;;1.30;1.03;;;6.30;1.00;;;;;;5029761;28;20186;-67
2022/11/21 00:29:55;;;;;;;1.50;0.80;;;6.30;1.00;;;;;;5029916;28;20418;-66
2022/11/21 00:32:21;;;;;;;2.17;1.07;;;6.30;1.00;;;;;;5028508;28;20172;-66
2022/11/21 00:34:47;;;;;;;2.20;1.20;;;6.30;1.00;;;;;;5029920;28;20202;-65
2022/11/21 00:37:12;;;;;;;1.50;1.17;;;6.30;1.00;;;;;;5029103;28;20671;-66
2022/11/21 00:39:38;;;;;;;1.60;1.07;;;6.30;1.00;;;;;;5029684;28;20211;-66
2022/11/21 00:42:04;;;;;;;2.73;1.20;;;6.30;1.00;;;;;;5028477;28;20671;-66
2022/11/21 00:44:30;;;;;;;1.43;1.20;;;6.40;1.00;;;;;;5029433;28;20178;-66
2022/11/21 00:46:55;;;;;;;1.50;1.13;;;6.40;1.00;;;;;;5029271;28;20163;-66
2022/11/21 00:49:21;;;;;;;5.17;1.57;;;6.40;1.00;;;;;;5029532;28;20198;-66
2022/11/21 00:51:47;;;;;;;1.20;1.00;;;6.30;99.90;;;;;;5027762;28;20267;-66
2022/11/21 00:54:12;;;;;;;1.60;1.50;;;6.20;1.00;;;;;;5029136;28;20180;-66
2022/11/21 00:56:38;;;;;;;2.07;1.40;;;6.20;1.00;;;;;;5028999;28;20172;-66
2022/11/21 00:59:04;;;;;;;1.90;1.10;;;6.20;1.00;;;;;;5029292;28;20206;-65
2022/11/21 01:01:29;;;;;;;1.60;1.10;;;6.30;1.00;;;;;;5027999;28;20258;-66
2022/11/21 01:03:57;;;;;;;2.83;1.10;;;6.30;1.00;;;;;;5032202;28;20183;-65
2022/11/21 01:06:22;;;;;;;5.80;1.30;;;6.40;1.00;;;;;;5032877;28;20176;-65
2022/11/21 01:08:48;;;;;;;2.10;1.00;;;6.40;1.00;;;;;;5032482;28;20414;-67
2022/11/21 01:11:17;;;;;;;1.53;1.07;;;6.30;1.00;;;;;;5032289;28;20164;-68
2022/11/21 01:13:43;;;;;;;2.40;1.10;;;6.30;99.90;;;;;;5033075;28;20254;-66
2022/11/21 01:16:18;;;;;;;1.40;1.20;;;6.20;1.00;;;;;;5032716;28;20410;-67
2022/11/21 01:18:44;;;;;;;1.20;1.10;;;6.20;1.00;;;;;;5032764;28;20556;-67
2022/11/21 01:21:27;;;;;;;1.17;1.07;;;6.20;1.00;;;;;;5031756;28;20933;-67
2022/11/21 01:23:54;;;;;;;1.67;1.27;;;6.20;1.00;;;;;;5032086;28;20413;-66
2022/11/21 01:26:22;;;;;;;5.83;1.30;;;6.20;1.00;;;;;;5032613;28;20399;-67
2022/11/21 01:28:49;;;;;;;1.73;1.30;;;6.20;1.00;;;;;;5032529;28;20906;-66
2022/11/21 01:31:18;;;;;;;1.57;1.20;;;6.10;1.00;;;;;;5031850;28;20397;-66
2022/11/21 01:33:44;;;;;;;5.00;1.40;;;6.10;99.90;;;;;;5032484;28;20401;-66
2022/11/21 01:36:12;;;;;;;1.90;1.00;;;6.20;99.90;;;;;;5031977;28;20402;-66
2022/11/21 01:38:39;;;;;;;2.30;1.20;;;6.20;99.90;;;;;;5031723;28;20489;-67
2022/11/21 01:41:06;;;;;;;1.80;1.27;;;6.20;99.90;;;;;;5031965;28;20489;-66
2022/11/21 01:43:32;;;;;;;1.40;0.90;;;6.20;99.90;;;;;;5032207;28;20464;-66
2022/11/21 01:46:10;;;;;;;2.43;1.00;;;6.10;1.00;;;;;;5032302;28;20410;-66
2022/11/21 01:48:39;;;;;;;4.10;2.00;;;6.10;1.00;;;;;;5032487;28;20425;-65
2022/11/21 01:51:29;;;;;;;1.90;1.20;;;6.20;99.90;;;;;;5031326;28;20394;-66
2022/11/21 01:54:04;;;;;;;2.53;1.20;;;6.20;99.90;;;;;;5010627;28;20468;-68
2022/11/21 01:56:37;;;;;;;3.93;1.10;;;6.20;99.90;;;;;;5032087;28;21017;-65
2022/11/21 01:59:05;;;;;;;1.80;1.53;;;6.20;99.90;;;;;;5031958;28;20494;-67
2022/11/21 02:01:33;;;;;;;1.40;1.20;;;6.20;1.00;;;;;;5030868;28;20568;-67
2022/11/21 02:04:01;;;;;;;2.87;1.33;;;6.20;1.00;;;;;;5032620;28;20410;-67
2022/11/21 02:06:28;;;;;;;1.90;1.33;;;6.10;1.00;;;;;;5032060;28;20492;-68
2022/11/21 02:08:54;;;;;;;2.20;1.57;;;6.20;1.00;;;;;;5031736;28;20422;-66
2022/11/21 02:11:32;;;;;;;13.53;1.57;;;6.20;1.00;;;;;;5030690;28;20492;-66
2022/11/21 02:13:59;;;;;;;1.93;1.50;;;6.10;1.00;;;;;;5031470;28;20873;-67
2022/11/21 02:16:26;;;;;;;1.73;1.03;;;6.10;1.00;;;;;;5031804;28;20405;-68
2022/11/21 02:18:52;;;;;;;2.20;2.00;;;6.10;1.00;;;;;;5031819;28;20438;-67
2022/11/21 02:21:34;;;;;;;1.67;1.27;;;6.10;1.00;;;;;;5030769;28;20460;-66
2022/11/21 02:24:14;;;;;;;1.80;1.33;;;6.20;1.00;;;;;;5031833;28;20267;-66
2022/11/21 02:26:40;;;;;;;4.90;1.53;;;6.20;1.00;;;;;;5031393;28;20887;-66
2022/11/21 02:29:06;;;;;;;3.60;1.70;;;6.20;1.00;;;;;;5031379;28;20414;-66
2022/11/21 02:31:31;;;;;;;2.80;1.30;;;6.20;1.00;;;;;;5030515;28;20433;-66
2022/11/21 02:33:57;;;;;;;2.70;1.57;;;6.20;1.00;;;;;;5031881;28;20183;-66
2022/11/21 02:36:44;;;;;;;3.13;1.73;;;6.20;1.00;;;;;;5031145;28;20628;-66
2022/11/21 02:39:31;;;;;;;1.50;1.13;;;6.30;1.00;;;;;;5031130;28;20206;-66
2022/11/21 02:42:19;;;;;;;3.60;1.23;;;6.20;1.00;;;;;;5030034;28;20790;-66
2022/11/21 02:44:52;;;;;;;3.00;1.67;;;6.30;1.00;;;;;;5031066;28;20513;-66
2022/11/21 02:47:21;;;;;;;3.80;1.23;;;6.30;1.00;;;;;;5030667;28;20824;-65
2022/11/21 02:49:58;;;;;;;3.20;1.30;;;6.30;1.00;;;;;;5031692;28;20480;-67
2022/11/21 02:52:24;;;;;;;1.27;1.00;;;6.30;1.00;;;;;;5029565;28;20438;-66
2022/11/21 02:54:50;;;;;;;4.70;1.30;;;6.30;1.00;;;;;;5031040;28;20893;-66
2022/11/21 02:57:15;;;;;;;1.83;1.30;;;6.30;74.60;;;;;;5030783;28;20690;-66
2022/11/21 02:59:41;;;;;;;3.40;1.30;;;6.30;47.70;;;;;;5030498;28;20195;-67
2022/11/21 03:02:07;;;;;;;2.40;1.10;;;6.30;99.90;;;;;;5029610;28;20269;-66
2022/11/21 03:04:32;;;;;;;2.40;1.63;;;6.30;99.90;;;;;;5030921;28;20175;-66
2022/11/21 03:06:58;;;;;;;8.20;1.53;;;6.40;99.90;;;;;;5030153;28;20629;-67
2022/11/21 03:09:24;;;;;;;9.60;1.43;;;6.40;99.90;;;;;;5030875;28;20270;-67
2022/11/21 03:11:49;;;;;;;7.90;1.80;;;6.40;99.90;;;;;;5029645;28;20591;-67
2022/11/21 03:14:15;;;;;;;6.10;1.73;;;6.40;99.90;;;;;;5030150;28;20159;-66
2022/11/21 03:16:41;;;;;;;4.70;1.63;;;6.40;99.90;;;;;;5030387;28;20534;-67
2022/11/21 03:19:06;;;;;;;4.63;1.70;;;6.40;99.90;;;;;;5030489;28;20188;-66
2022/11/21 03:21:32;;;;;;;2.70;1.30;;;6.40;99.90;;;;;;5028983;28;20171;-66
2022/11/21 03:23:58;;;;;;;1.80;1.47;;;6.40;99.90;;;;;;5030475;28;20218;-67
2022/11/21 03:26:23;;;;;;;2.30;1.13;;;6.30;99.90;;;;;;5029924;28;20172;-67
2022/11/21 03:28:49;;;;;;;1.60;1.20;;;6.30;99.90;;;;;;5030116;28;20504;-67
2022/11/21 03:31:15;;;;;;;2.57;1.50;;;6.20;99.90;;;;;;5029445;28;20565;-67
2022/11/21 03:33:40;;;;;;;2.90;1.83;;;6.30;99.90;;;;;;5029974;28;20541;-67
2022/11/21 03:36:06;;;;;;;4.80;1.40;;;6.30;99.90;;;;;;5029932;28;20174;-66
2022/11/21 03:38:32;;;;;;;2.40;1.60;;;6.30;99.90;;;;;;5029679;28;20606;-67
2022/11/21 03:41:03;;;;;;;1.90;1.60;;;6.30;99.90;;;;;;5029644;28;20171;-67
2022/11/21 03:43:28;;;;;;;2.90;1.20;;;6.30;99.90;;;;;;5029666;28;20207;-66
2022/11/21 03:45:54;;;;;;;1.50;1.20;;;6.30;99.90;;;;;;5030148;28;20925;-67
2022/11/21 03:48:20;;;;;;;2.97;1.80;;;6.30;99.90;;;;;;5029640;28;20200;-66
2022/11/21 03:50:45;;;;;;;2.40;1.43;;;6.20;99.90;;;;;;5029115;28;20174;-67
2022/11/21 03:53:11;;;;;;;1.93;1.30;;;6.30;1.00;;;;;;5028941;28;20179;-66
2022/11/21 03:55:37;;;;;;;2.17;1.43;;;6.10;1.00;;;;;;5029647;28;20176;-66
2022/11/21 03:58:02;;;;;;;4.50;2.30;;;6.30;99.90;;;;;;5029731;28;20695;-67
2022/11/21 04:00:28;;;;;;;2.00;1.40;;;6.40;99.90;;;;;;5028936;28;20175;-67
2022/11/21 04:02:54;;;;;;;2.30;1.40;;;6.30;99.90;;;;;;5029881;28;20200;-67
2022/11/21 04:05:19;;;;;;;5.17;1.30;;;6.30;99.90;;;;;;5030205;28;20171;-67
2022/11/21 04:07:45;;;;;;;3.53;1.23;;;6.30;99.90;;;;;;5029099;28;20168;-67
2022/11/21 04:10:11;;;;;;;1.87;1.33;;;6.30;99.90;;;;;;5029698;28;20170;-67
2022/11/21 04:12:36;;;;;;;2.10;1.40;;;6.30;99.90;;;;;;5029169;28;20588;-67
2022/11/21 04:15:03;;;;;;;2.40;1.10;;;6.20;99.90;;;;;;5030076;28;20167;-67
2022/11/21 04:17:30;;;;;;;1.67;1.23;;;6.40;99.90;;;;;;5029590;28;20537;-67
2022/11/21 04:19:56;;;;;;;6.73;1.27;;;6.40;99.90;;;;;;5029457;28;20521;-66
2022/11/21 04:22:22;;;;;;;4.10;1.23;;;6.40;99.90;;;;;;5028513;28;20723;-67
2022/11/21 04:24:47;;;;;;;4.10;2.00;;;6.40;99.90;;;;;;5029530;28;20171;-66
2022/11/21 04:27:13;;;;;;;2.20;0.90;;;6.30;99.90;;;;;;5029646;28;20176;-67
2022/11/21 04:29:39;;;;;;;0.90;0.70;;;6.30;5.50;;;;;;5029513;28;20191;-67
2022/11/21 04:32:04;;;;;;;2.13;1.00;;;6.20;1.00;;;;;;5028545;28;20168;-67
2022/11/21 04:34:30;;;;;;;1.30;0.90;;;6.20;60.90;;;;;;5029431;28;20164;-67
2022/11/21 04:36:55;;;;;;;1.00;0.70;;;6.20;1.00;;;;;;5028982;28;20633;-67
2022/11/21 04:39:21;;;;;;;1.80;1.07;;;6.20;1.00;;;;;;5033524;28;21040;-67
2022/11/21 04:41:47;;;;;;;1.50;0.90;;;6.20;35.70;;;;;;5033098;28;20291;-66
2022/11/21 04:44:12;;;;;;;1.67;0.73;;;6.10;99.90;;;;;;5033373;28;20172;-65
2022/11/21 04:46:38;;;;;;;1.03;0.70;;;6.20;99.90;;;;;;5033314;28;20191;-66
2022/11/21 04:49:04;;;;;;;0.90;0.80;;;6.20;1.00;;;;;;5033451;28;20198;-67
2022/11/21 04:51:29;;;;;;;1.73;1.00;;;6.20;1.00;;;;;;5032661;28;20234;-67
2022/11/21 04:53:55;;;;;;;5.23;3.57;;;6.20;1.00;;;;;;5033115;28;20581;-66
2022/11/21 04:56:21;;;;;;;4.53;2.73;;;6.20;1.00;;;;;;5033304;28;20169;-66
2022/11/21 04:58:46;;;;;;;1.93;1.10;;;6.20;1.00;;;;;;5033130;28;20253;-66
2022/11/21 05:01:12;;;;;;;1.50;1.10;;;6.30;1.00;;;;;;5032277;28;20167;-67
2022/11/21 05:03:38;;;;;;;1.67;1.27;;;6.20;1.00;;;;;;5032722;28;20203;-67
2022/11/21 05:06:03;;;;;;;4.53;1.40;;;6.10;99.90;;;;;;5032841;28;20247;-66
2022/11/21 05:08:29;;;;;;;2.60;0.97;;;6.10;99.90;;;;;;5032415;28;20548;-66
2022/11/21 05:13:39;;;;;;;1.93;0.90;;;6.20;1.00;;;;;;5032844;28;20606;-66
2022/11/21 05:16:05;;;;;;;1.50;1.00;;;6.20;1.00;;;;;;5032618;28;20414;-66
2022/11/21 05:18:30;;;;;;;1.83;1.00;;;6.10;1.00;;;;;;5032633;28;20378;-67
2022/11/21 05:20:56;;;;;;;6.30;1.10;;;6.10;61.70;;;;;;5031786;28;20172;-66
2022/11/21 05:23:22;;;;;;;3.47;1.13;;;6.10;99.90;;;;;;5031918;28;20210;-65
2022/11/21 05:25:47;;;;;;;3.50;1.30;;;6.00;88.50;;;;;;5032498;28;20174;-66
2022/11/21 05:28:13;;;;;;;1.47;1.37;;;6.10;1.00;;;;;;5032139;28;20187;-67
2022/11/21 05:30:39;;;;;;;1.73;1.10;;;6.00;1.00;;;;;;5030212;28;20172;-67
2022/11/21 05:33:05;;;;;;;4.93;0.90;;;6.10;1.00;;;;;;5032327;28;20175;-65
2022/11/21 05:35:31;;;;;;;4.30;1.00;;;6.00;1.00;;;;;;5032581;28;20258;-67
2022/11/21 05:37:58;;;;;;;2.93;1.30;;;6.00;1.00;;;;;;5031803;28;20525;-67
2022/11/21 05:40:24;;;;;;;1.43;0.83;;;6.00;1.00;;;;;;5031680;28;20159;-68
2022/11/21 05:45:34;;;;;;;1.93;1.10;;;6.00;1.00;;;;;;5024375;28;20426;-67
2022/11/21 05:48:00;;;;;;;2.50;1.40;;;5.90;1.00;;;;;;5031468;28;20426;-68
2022/11/21 05:50:26;;;;;;;1.90;1.13;;;5.80;1.00;;;;;;5030149;28;20719;-68
2022/11/21 05:52:51;;;;;;;3.17;1.83;;;5.70;1.00;;;;;;5029854;28;20680;-68
2022/11/21 05:55:17;;;;;;;9.90;1.30;;;5.70;7.90;;;;;;5029422;28;20168;-67
2022/11/21 05:57:42;;;;;;;4.37;1.63;;;5.70;78.90;;;;;;5028944;28;20182;-66
2022/11/21 06:00:09;;;;;;;7.80;1.23;;;5.80;1.00;;;;;;5028895;28;20180;-68
2022/11/21 06:05:19;;;;;;;6.30;1.77;;;5.70;1.00;;;;;;5029050;28;20544;-66
2022/11/21 06:07:44;;;;;;;8.87;2.03;;;5.70;1.00;;;;;;5028274;28;20462;-67
2022/11/21 06:10:10;;;;;;;3.63;1.63;;;5.90;1.00;;;;;;5028486;28;20458;-67
2022/11/21 06:12:36;;;;;;;3.13;1.80;;;5.90;1.00;;;;;;5028286;28;20172;-68
2022/11/21 06:15:02;;;;;;;13.03;2.57;;;5.80;99.90;;;;;;5027455;28;20211;-67
2022/11/21 06:17:27;;;;;;;7.53;1.70;;;5.80;75.30;;;;;;5017309;28;20249;-66
2022/11/21 06:19:53;;;;;;;7.33;2.33;;;5.90;17.20;;;;;;5026926;28;20552;-66
2022/11/21 06:22:19;;;;;;;7.67;2.17;;;6.00;1.00;;;;;;5025288;28;20261;-67
2022/11/21 06:24:44;;;;;;;2.23;1.20;;;5.90;1.00;;;;;;5024672;28;20255;-66
2022/11/21 06:27:10;;;;;;;5.47;1.30;;;5.90;1.00;;;;;;5026956;28;20182;-67
2022/11/21 06:29:36;;;;;;;3.57;1.30;;;5.90;1.00;;;;;;5026098;28;20192;-68
2022/11/21 06:32:01;;;;;;;6.60;1.57;;;5.90;1.00;;;;;;5027530;28;20230;-68
2022/11/21 06:34:27;;;;;;;8.63;1.50;;;5.90;1.00;;;;;;5025135;28;20366;-67
2022/11/21 06:36:53;;;;;;;9.33;1.83;;;5.80;1.00;;;;;;5021849;28;20192;-67
2022/11/21 06:39:18;;;;;;;8.30;2.23;;;5.70;1.00;;;;;;5027646;28;21042;-67
2022/11/21 06:41:49;;;;;;;2.37;1.17;;;5.70;1.00;;;;;;5025571;28;20585;-67
2022/11/21 06:44:16;;;;;;;24.93;2.97;;;5.80;1.00;;;;;;5025466;28;20176;-67
2022/11/21 06:46:42;;;;;;;9.50;2.20;;;7.50;1.00;;;;;;5025878;28;20550;-68
2022/11/21 06:49:08;;;;;;;9.43;1.50;;;6.60;32.90;;;;;;5017680;28;20505;-67
2022/11/21 06:51:33;;;;;;;18.37;2.60;;;6.20;99.90;;;;;;5024370;28;20207;-68
2022/11/21 06:53:59;;;;;;;12.77;1.93;;;5.90;1.00;;;;;;5021247;28;20282;-69
2022/11/21 06:56:29;;;;;;;7.90;2.13;;;5.90;1.00;;;;;;5018478;28;20704;-68
2022/11/21 06:58:55;;;;;;;14.27;2.37;;;6.00;1.00;;;;;;5027831;28;20431;-69
2022/11/21 07:01:22;;;;;;;14.40;2.97;;;6.00;1.00;;;;;;5019245;28;20431;-67
2022/11/21 07:03:48;;;;;;;4.33;1.67;;;6.00;1.00;;;;;;5026869;28;20210;-69
2022/11/21 07:06:13;;;;;;;6.27;1.97;;;5.90;1.00;;;;;;5025886;28;20791;-69
2022/11/21 07:08:42;;;;;;;4.13;1.97;;;5.80;1.00;;;;;;5027386;28;20246;-69
2022/11/21 07:11:09;;;;;;;4.23;1.63;;;5.90;1.00;;;;;;5027096;28;20275;-68
2022/11/21 07:13:35;;;;;;;1.77;1.33;;;5.80;1.00;;;;;;5025472;28;20410;-68
2022/11/21 07:16:04;;;;;;;2.63;1.30;;;6.00;1.00;;;;;;5023785;28;20426;-70
2022/11/21 07:18:30;;;;;;;2.23;1.40;;;6.90;99.90;;;;;;5026697;28;20977;-70
2022/11/21 07:21:01;;;;;;;2.00;1.70;;;7.40;99.90;;;;;;5026724;28;20411;-67
2022/11/21 07:23:28;;;;;;;2.27;1.80;;;8.10;1.00;;;;;;5026551;28;20192;-67
2022/11/21 07:25:54;;;;;;;2.47;1.60;;;10.00;99.90;;;;;;5026358;28;20450;-70
2022/11/21 07:28:19;;;;;;;3.80;1.77;;;11.70;1.00;;;;;;5027619;28;20438;-70
2022/11/21 07:30:45;;;;;;;3.43;1.43;;;12.80;99.90;;;;;;5027031;28;20410;-68
2022/11/21 07:33:11;;;;;;;6.30;2.27;;;13.60;99.90;;;;;;5027596;28;20183;-70
2022/11/21 07:35:37;;;;;;;34.00;4.30;;;14.40;99.90;;;;;;5027859;28;20438;-69
2022/11/21 07:38:03;;;;;;;32.13;4.37;;;15.00;99.90;;;;;;5026414;28;20277;-68
2022/11/21 07:40:32;;;;;;;13.57;2.50;;;15.20;99.90;;;;;;5026854;28;20183;-69
2022/11/21 07:43:02;;;;;;;17.23;2.93;;;15.40;99.90;;;;;;5027233;28;20489;-69
2022/11/21 07:45:28;;;;;;;10.07;1.70;;;15.40;99.90;;;;;;5024921;28;20422;-69
2022/11/21 07:48:01;;;;;;;11.50;3.00;;;15.60;99.90;;;;;;5028524;28;20472;-69
2022/11/21 07:50:27;;;;;;;1.90;1.10;;;15.90;99.90;;;;;;5029399;28;20541;-68
2022/11/21 07:53:12;;;;;;;3.83;1.23;;;16.50;99.90;;;;;;5029796;28;20416;-66
2022/11/21 07:55:37;;;;;;;4.50;1.37;;;16.80;99.90;;;;;;5028287;28;20782;-68
2022/11/21 07:58:09;;;;;;;2.83;1.40;;;17.30;99.90;;;;;;5029734;28;20429;-69
2022/11/21 08:00:36;;;;;;;2.73;1.43;;;17.40;99.90;;;;;;5029051;28;20206;-69
2022/11/21 08:03:06;;;;;;;11.10;2.37;;;17.60;99.90;;;;;;5029998;28;20537;-69
2022/11/21 08:05:39;;;;;;;43.60;5.73;;;18.10;99.90;;;;;;5029997;28;20402;-69
2022/11/21 08:08:05;;;;;;;23.77;4.10;;;18.20;99.90;;;;;;5029099;28;20453;-69
2022/11/21 08:10:31;;;;;;;53.67;6.87;;;18.50;99.90;;;;;;5029082;28;20915;-69
2022/11/21 08:12:57;;;;;;;23.13;4.97;;;18.50;99.90;;;;;;5029048;28;20413;-69
2022/11/21 08:15:22;;;;;;;26.00;4.07;;;18.60;99.90;;;;;;5030165;28;20634;-68
2022/11/21 08:17:48;;;;;;;37.90;5.67;;;18.80;99.90;;;;;;5029694;28;20513;-69
2022/11/21 08:20:14;;;;;;;20.90;3.10;;;19.00;99.90;;;;;;5029192;28;20258;-69
2022/11/21 08:22:43;;;;;;;14.73;2.97;;;19.10;99.90;;;;;;5027914;28;20199;-69
2022/11/21 08:25:09;;;;;;;43.70;5.30;;;19.20;99.90;;;;;;5029634;28;20613;-69
2022/11/21 08:27:38;;;;;;;16.40;2.93;;;19.90;99.90;;;;;;5029493;28;20415;-69
2022/11/21 08:30:09;;;;;;;12.30;2.50;;;20.30;99.90;;;;;;5029920;28;20483;-70
2022/11/21 08:32:35;;;;;;;7.90;1.83;;;18.60;99.90;;;;;;5028934;28;20407;-69
2022/11/21 08:35:01;;;;;;;9.07;2.00;;;17.70;99.90;;;;;;5030164;28;20403;-69
2022/11/21 08:37:29;;;;;;;3.67;1.43;;;17.90;99.90;;;;;;5029151;28;20190;-68
2022/11/21 08:39:57;;;;;;;5.23;1.60;;;18.40;99.90;;;;;;5029563;28;20183;-68
2022/11/21 08:42:24;;;;;;;6.87;1.53;;;19.10;99.90;;;;;;5028681;28;20481;-68
2022/11/21 08:44:50;;;;;;;6.00;1.47;;;19.70;99.90;;;;;;5029656;28;20432;-68
2022/11/21 08:47:15;;;;;;;2.67;1.83;;;19.00;99.90;;;;;;5029413;28;21174;-68
2022/11/21 08:49:41;;;;;;;5.97;1.40;;;19.80;99.90;;;;;;5029355;28;20188;-69
2022/11/21 08:52:07;;;;;;;5.07;1.50;;;20.10;99.90;;;;;;5027902;28;20182;-68
2022/11/21 08:54:32;;;;;;;2.10;1.00;;;20.30;99.90;;;;;;5029059;28;20171;-68
2022/11/21 08:56:58;;;;;;;2.40;1.50;;;20.20;99.90;;;;;;5029149;28;20176;-68
2022/11/21 08:59:24;;;;;;;8.60;1.97;;;20.10;99.90;;;;;;5029337;28;20192;-68
2022/11/21 09:01:51;;;;;;;4.90;1.70;;;20.00;99.90;;;;;;5028106;28;20191;-68
2022/11/21 09:04:17;;;;;;;5.53;1.77;;;19.90;99.90;;;;;;5029250;28;20172;-68
2022/11/21 09:06:43;;;;;;;8.30;1.70;;;18.90;99.90;;;;;;5028786;28;21007;-68
2022/11/21 09:09:08;;;;;;;15.87;2.10;;;18.00;99.90;;;;;;5029383;28;20270;-69
2022/11/21 09:11:36;;;;;;;12.80;2.90;;;17.40;99.90;;;;;;5028395;28;20226;-68
2022/11/21 09:19:30;;;;;;;6.50;2.40;;;16.50;99.90;;;;;;5029289;28;20832;-68
2022/11/21 09:21:55;;;;;;;7.13;1.40;;;16.40;99.90;;;;;;5027444;28;20441;-68
2022/11/21 09:24:21;;;;;;;4.23;1.53;;;15.90;99.90;;;;;;5031015;28;21057;-68
2022/11/21 09:26:47;;;;;;;29.40;4.40;;;16.00;99.90;;;;;;5032470;28;20257;-68
2022/11/21 09:29:14;;;;;;;23.80;3.70;;;15.50;99.90;;;;;;5032915;28;20191;-69
2022/11/21 09:31:40;;;;;;;22.00;4.23;;;15.50;99.90;;;;;;5031889;28;20187;-68
2022/11/21 09:34:06;;;;;;;19.53;3.30;;;15.60;99.90;;;;;;5032567;28;20410;-68
2022/11/21 09:36:32;;;;;;;13.97;2.60;;;15.60;99.90;;;;;;5032184;28;20404;-67
2022/11/21 09:38:57;;;;;;;5.80;1.90;;;15.50;99.90;;;;;;5032198;28;20203;-68
2022/11/21 09:41:53;;;;;;;6.07;1.70;;;15.60;99.90;;;;;;5032949;28;20168;-69
2022/11/21 09:44:36;;;;;;;12.30;1.80;;;15.50;99.90;;;;;;5032110;28;20171;-68
2022/11/21 09:47:33;;;;;;;11.40;2.17;;;14.90;99.90;;;;;;5032386;28;20404;-68
2022/11/21 09:50:06;;;;;;;7.87;2.20;;;15.10;99.90;;;;;;5029112;28;20507;-68
2022/11/21 09:52:37;;;;;;;4.20;1.50;;;14.80;99.90;;;;;;5030954;28;20938;-68
2022/11/21 09:55:12;;;;;;;3.57;1.80;;;14.80;99.90;;;;;;5032123;28;20412;-69
2022/11/21 09:57:38;;;;;;;5.30;1.63;;;14.70;99.90;;;;;;5031839;28;20927;-68
2022/11/21 10:00:19;;;;;;;3.67;1.50;;;14.40;99.90;;;;;;5031992;28;20421;-69
2022/11/21 10:02:45;;;;;;;8.13;1.90;;;14.10;99.90;;;;;;5031437;28;20286;-68
2022/11/21 10:05:14;;;;;;;12.13;2.70;;;14.00;99.90;;;;;;5031933;28;20841;-67
2022/11/21 10:07:41;;;;;;;15.70;3.80;;;13.90;99.90;;;;;;5031399;28;20164;-68
2022/11/21 10:10:16;;;;;;;8.30;2.83;;;14.10;99.90;;;;;;5031552;28;20448;-67
2022/11/21 10:12:49;;;;;;;9.67;1.83;;;14.20;99.90;;;;;;5030982;28;20435;-67
2022/11/21 10:15:21;;;;;;;7.67;1.97;;;13.80;99.90;;;;;;5031785;28;20548;-67
2022/11/21 10:18:05;;;;;;;66.77;10.97;;;14.00;99.90;;;;;;5031447;28;20965;-67
2022/11/21 10:21:12;;;;;;;36.90;6.87;;;14.00;99.90;;;;;;5030758;28;20419;-67
2022/11/21 10:23:50;;;;;;;20.47;3.60;;;13.90;99.90;;;;;;5022736;28;20470;-67
2022/11/21 10:26:40;;;;;;;6.90;3.10;;;13.90;99.90;;;;;;5031513;28;20923;-68
2022/11/21 10:29:17;;;;;;;17.07;3.60;;;13.80;99.90;;;;;;5031599;28;20419;-68
2022/11/21 10:31:43;;;;;;;31.47;4.60;;;13.70;99.90;;;;;;5030581;28;20414;-68
2022/11/21 10:34:19;;;;;;;38.23;7.00;;;13.80;99.90;;;;;;5031516;28;20926;-68
2022/11/21 10:36:50;;;;;;;44.93;7.03;;;13.90;99.90;;;;;;5029856;28;20176;-68
2022/11/21 10:39:44;;;;;;;12.43;2.60;;;13.80;99.90;;;;;;5031595;28;20456;-68
2022/11/21 10:42:12;;;;;;;2.60;1.87;;;13.20;99.90;;;;;;5029330;28;20462;-68
2022/11/21 10:47:29;;;;;;;7.00;2.50;;;12.60;99.90;;;;;;5031128;28;20417;-68
2022/11/21 10:49:58;;;;;;;5.00;2.20;;;12.60;99.90;;;;;;5031321;28;20517;-68
2022/11/21 10:52:26;;;;;;;3.30;2.17;;;12.30;99.90;;;;;;5029526;28;20903;-68
2022/11/21 10:55:01;;;;;;;14.70;2.30;;;12.00;99.90;;;;;;5030733;28;20518;-68
2022/11/21 10:57:30;;;;;;;4.93;2.63;;;12.00;99.90;;;;;;5031030;28;20489;-68
2022/11/21 11:00:24;;;;;;;7.57;2.10;;;11.70;99.90;;;;;;5030738;28;20430;-69
2022/11/21 11:03:14;;;;;;;15.03;3.40;;;11.70;99.90;;;;;;5031255;28;20466;-67
2022/11/21 11:05:52;;;;;;;13.70;2.93;;;11.70;99.90;;;;;;5030826;28;20916;-69
2022/11/21 11:08:18;;;;;;;24.43;3.73;;;11.50;99.90;;;;;;5030896;28;20411;-70
2022/11/21 11:10:59;;;;;;;7.80;2.27;;;11.70;99.90;;;;;;5030090;28;20409;-70
2022/11/21 11:15:54;;;;;;;3.67;1.93;;;11.90;99.90;;;;;;5030897;28;20420;-69
2022/11/21 11:18:23;;;;;;;5.47;2.10;;;12.20;99.90;;;;;;5030476;28;20517;-69
2022/11/21 11:20:49;;;;;;;7.90;2.10;;;12.40;99.90;;;;;;5029498;28;20200;-69
2022/11/21 11:23:26;;;;;;;2.60;1.93;;;12.40;99.90;;;;;;5030026;28;20468;-69
2022/11/21 11:25:55;;;;;;;5.17;1.70;;;12.40;99.90;;;;;;5030214;28;20418;-70
2022/11/21 11:28:23;;;;;;;6.30;1.77;;;12.40;99.90;;;;;;5029972;28;20418;-67
2022/11/21 11:30:50;;;;;;;28.83;4.70;;;12.80;99.90;;;;;;5029116;28;20791;-70
2022/11/21 11:33:31;;;;;;;17.20;4.07;;;12.80;99.90;;;;;;5029674;28;20457;-69
2022/11/21 11:36:13;;;;;;;14.33;3.10;;;12.50;99.90;;;;;;5029984;28;20402;-69
2022/11/21 11:38:44;;;;;;;11.37;2.37;;;12.40;99.90;;;;;;5029183;28;20454;-68
2022/11/21 11:47:29;;;;;;;3.60;1.63;;;12.60;99.90;;;;;;5029124;28;20412;-69
2022/11/21 11:47:29;;;;;;;3.03;1.87;;;12.90;99.90;;;;;;5029904;28;20401;-69
2022/11/21 11:50:10;;;;;;;20.40;4.40;;;12.70;99.90;;;;;;5029813;28;20498;-69
2022/11/21 11:53:02;;;;;;;4.70;1.90;;;12.50;99.90;;;;;;5028877;28;20406;-69
2022/11/21 11:55:32;;;;;;;34.13;4.93;;;12.50;99.90;;;;;;5029390;28;20402;-69
2022/11/21 11:58:01;;;;;;;8.67;1.90;;;12.60;99.90;;;;;;5026355;28;20904;-69
2022/11/21 12:00:39;;;;;;;4.13;1.73;;;12.80;99.90;;;;;;5027539;28;20440;-69
2022/11/21 12:03:05;;;;;;;21.77;3.03;;;12.80;99.90;;;;;;5022283;28;20524;-69
2022/11/21 12:05:31;;;;;;;9.93;2.80;;;13.00;99.90;;;;;;5029154;28;20911;-68
2022/11/21 12:08:13;;;;;;;39.33;4.90;;;13.80;99.90;;;;;;5027908;28;20176;-69
2022/11/21 12:13:34;;;;;;;92.90;10.27;;;13.10;99.90;;;;;;5026064;28;20490;-69
2022/11/21 12:16:07;;;;;;;37.93;6.37;;;13.10;99.90;;;;;;5021505;28;20446;-68
2022/11/21 12:18:38;;;;;;;64.33;6.90;;;13.20;99.90;;;;;;5026489;28;20493;-69
2022/11/21 12:21:14;;;;;;;22.13;3.33;;;13.20;99.90;;;;;;5026696;28;20458;-68
2022/11/21 12:23:49;;;;;;;10.90;3.03;;;13.20;99.90;;;;;;5028211;28;20466;-69
2022/11/21 12:26:35;;;;;;;43.70;5.17;;;13.20;99.90;;;;;;5023391;28;20496;-68
2022/11/21 12:29:17;;;;;;;12.40;4.10;;;13.20;99.90;;;;;;5029242;28;20528;-68
2022/11/21 12:32:13;;;;;;;8.93;2.20;;;13.10;99.90;;;;;;5017952;28;20429;-68
2022/11/21 12:34:57;;;;;;;5.70;2.20;;;13.20;99.90;;;;;;5024831;28;20442;-68
2022/11/21 12:37:45;;;;;;;6.30;1.80;;;13.20;99.90;;;;;;5021003;28;20430;-69
2022/11/21 12:40:44;;;;;;;6.33;1.50;;;13.10;99.90;;;;;;5014501;28;20974;-68
2022/11/21 12:43:28;;;;;;;7.43;3.13;;;13.10;99.90;;;;;;5028077;28;20464;-69
2022/11/21 12:46:09;;;;;;;4.60;1.43;;;12.70;99.90;;;;;;5023941;28;20526;-68
2022/11/21 12:54:39;;;;;;;69.70;9.80;;;12.40;99.90;;;;;;5029842;28;20504;-69
2022/11/21 12:57:13;;;;;;;12.73;3.67;;;12.40;99.90;;;;;;5029301;28;21152;-68
2022/11/21 12:59:59;;;;;;;11.43;2.90;;;12.30;99.90;;;;;;5031654;28;20410;-69
2022/11/21 13:02:46;;;;;;;21.17;3.23;;;12.10;99.90;;;;;;5012878;28;20458;-68
2022/11/21 13:05:22;;;;;;;17.90;3.00;;;12.10;99.90;;;;;;5033339;28;20398;-68
2022/11/21 13:07:53;;;;;;;16.17;3.53;;;12.20;99.90;;;;;;5031958;28;20406;-68
2022/11/21 13:10:19;;;;;;;5.80;1.53;;;12.40;99.90;;;;;;5032720;28;20459;-69
2022/11/21 13:13:03;;;;;;;5.77;1.30;;;12.50;99.90;;;;;;5032400;28;20545;-69
2022/11/21 13:15:42;;;;;;;3.67;1.43;;;12.60;99.90;;;;;;5033110;28;20413;-68
2022/11/21 13:18:35;;;;;;;2.10;1.20;;;12.70;99.90;;;;;;5024685;28;20438;-68
2022/11/21 13:21:00;;;;;;;7.43;2.10;;;12.70;99.90;;;;;;5012980;28;20755;-69
2022/11/21 13:23:37;;;;;;;7.30;2.10;;;12.60;99.90;;;;;;5027817;28;20450;-68
2022/11/21 13:26:25;;;;;;;34.63;4.80;;;12.60;99.90;;;;;;5033163;28;20203;-69
2022/11/21 13:29:06;;;;;;;39.20;4.67;;;12.40;99.90;;;;;;5032429;28;20464;-69
2022/11/21 13:31:33;;;;;;;37.03;5.43;;;12.30;99.90;;;;;;5031889;28;20430;-67
2022/11/21 13:34:00;;;;;;;114.30;12.37;;;12.20;99.90;;;;;;5032809;28;20903;-67
2022/11/21 13:36:28;;;;;;;50.50;5.90;;;12.20;99.90;;;;;;5032763;28;20417;-67